Time;durP1;ratioP1;P1;durP2;ratioP2;P2;SDS_P1;SDS_P2;PMS_P1;PMS_P2;Temp;Humidity;BMP_temperature;BMP_pressure;BME280_temperature;BME280_humidity;BME280_pressure;Samples;Min_cycle;Max_cycle;Signal;HPM_P1;HPM_P2
2022/02/23 00:01:18;;;;;;;0.50;0.20;;;8.50;1.00;;;;;;5078310;28;20865;-55
2022/02/23 00:03:44;;;;;;;0.40;0.13;;;8.50;1.00;;;;;;5079121;28;20420;-56
2022/02/23 00:06:12;;;;;;;0.60;0.20;;;8.40;1.00;;;;;;5081114;28;20704;-60
2022/02/23 00:08:40;;;;;;;0.40;0.30;;;8.40;1.00;;;;;;5080997;28;20850;-57
2022/02/23 00:11:07;;;;;;;1.70;0.20;;;8.30;1.00;;;;;;5079905;28;20925;-58
2022/02/23 00:13:34;;;;;;;0.90;0.20;;;8.40;1.00;;;;;;5076613;28;20692;-55
2022/02/23 00:16:00;;;;;;;0.30;0.10;;;8.40;1.00;;;;;;5076656;28;20442;-58
2022/02/23 00:18:27;;;;;;;0.30;0.20;;;8.40;1.00;;;;;;5077330;28;20438;-57
2022/02/23 00:20:54;;;;;;;0.40;0.20;;;8.50;1.00;;;;;;5077849;28;20437;-56
2022/02/23 00:23:21;;;;;;;0.40;0.20;;;8.40;1.00;;;;;;5077067;28;20668;-57
2022/02/23 00:25:49;;;;;;;0.85;0.10;;;8.30;9.30;;;;;;5077222;28;20424;-55
2022/02/23 00:28:16;;;;;;;1.00;0.10;;;8.40;11.20;;;;;;5077498;28;20441;-57
2022/02/23 00:30:43;;;;;;;0.40;0.20;;;8.40;9.10;;;;;;5077549;28;20424;-57
2022/02/23 00:33:10;;;;;;;0.43;0.20;;;8.40;12.50;;;;;;5076987;28;20419;-56
2022/02/23 00:35:37;;;;;;;0.30;0.10;;;8.40;17.30;;;;;;5077220;28;20433;-55
2022/02/23 00:38:04;;;;;;;0.35;0.20;;;8.40;17.60;;;;;;5077609;28;20534;-52
2022/02/23 00:40:31;;;;;;;0.40;0.17;;;8.40;25.30;;;;;;5077046;28;20529;-57
2022/02/23 00:42:59;;;;;;;0.50;0.10;;;8.30;32.90;;;;;;5077384;28;20430;-56
2022/02/23 00:45:27;;;;;;;0.50;0.13;;;8.30;37.10;;;;;;5077764;28;20462;-53
2022/02/23 00:47:54;;;;;;;0.40;0.20;;;8.40;34.80;;;;;;5076791;28;20423;-56
2022/02/23 00:50:21;;;;;;;0.30;0.10;;;8.30;51.40;;;;;;5076920;28;20897;-55
2022/02/23 00:52:48;;;;;;;0.43;0.20;;;8.40;60.80;;;;;;5076439;28;20419;-55
2022/02/23 00:55:15;;;;;;;0.30;0.10;;;8.40;63.70;;;;;;5076656;28;20427;-54
2022/02/23 00:57:42;;;;;;;0.40;0.20;;;8.40;74.40;;;;;;5076410;28;20730;-56
2022/02/23 01:00:12;;;;;;;0.50;0.20;;;8.30;90.40;;;;;;5076563;28;20851;-54
2022/02/23 01:02:40;;;;;;;0.30;0.10;;;8.30;92.30;;;;;;5076830;28;20427;-55
2022/02/23 01:05:08;;;;;;;0.40;0.20;;;8.30;94.30;;;;;;5076387;28;20427;-56
2022/02/23 01:07:35;;;;;;;1.00;0.20;;;8.20;99.10;;;;;;5075834;28;20419;-56
2022/02/23 01:10:02;;;;;;;0.40;0.20;;;8.20;99.90;;;;;;5076023;28;20427;-56
2022/02/23 01:12:29;;;;;;;0.50;0.20;;;8.20;99.90;;;;;;5075659;28;20419;-56
2022/02/23 01:14:56;;;;;;;0.40;0.20;;;8.20;99.90;;;;;;5075785;28;20440;-55
2022/02/23 01:17:24;;;;;;;0.70;0.20;;;8.30;99.90;;;;;;5075692;28;20530;-56
2022/02/23 01:19:51;;;;;;;0.50;0.20;;;8.30;99.90;;;;;;5076212;28;20439;-56
2022/02/23 01:22:18;;;;;;;0.60;0.20;;;8.30;99.90;;;;;;5076988;28;20446;-56
2022/02/23 01:24:45;;;;;;;0.30;0.10;;;8.20;99.90;;;;;;5075961;28;20427;-55
2022/02/23 01:27:12;;;;;;;2.10;0.20;;;8.20;99.90;;;;;;5075734;28;20424;-55
2022/02/23 01:29:38;;;;;;;0.40;0.20;;;8.30;99.90;;;;;;5075353;28;20439;-53
2022/02/23 01:32:06;;;;;;;0.50;0.20;;;8.20;99.90;;;;;;5075370;28;20466;-54
2022/02/23 01:34:34;;;;;;;0.50;0.20;;;8.20;99.90;;;;;;5075072;28;20434;-55
2022/02/23 01:37:03;;;;;;;0.40;0.20;;;8.30;99.90;;;;;;5074633;28;20480;-58
2022/02/23 01:39:30;;;;;;;1.00;0.20;;;8.20;99.90;;;;;;5075924;28;20435;-58
2022/02/23 01:41:57;;;;;;;0.90;0.20;;;8.30;99.90;;;;;;5075936;28;20430;-57
2022/02/23 01:44:24;;;;;;;0.40;0.20;;;8.30;99.90;;;;;;5075495;28;20435;-57
2022/02/23 01:46:51;;;;;;;0.40;0.20;;;8.20;99.90;;;;;;5075485;28;20438;-58
2022/02/23 01:49:18;;;;;;;0.43;0.20;;;8.20;99.90;;;;;;5075085;28;20415;-57
2022/02/23 01:51:48;;;;;;;0.50;0.20;;;8.20;99.90;;;;;;5075426;28;20420;-57
2022/02/23 01:54:15;;;;;;;0.70;0.20;;;8.20;99.90;;;;;;5075227;28;20427;-56
2022/02/23 01:56:41;;;;;;;0.70;0.20;;;8.20;99.90;;;;;;5075397;28;20423;-56
2022/02/23 01:59:09;;;;;;;2.40;0.20;;;8.20;89.70;;;;;;5075158;28;20436;-54
2022/02/23 02:01:36;;;;;;;0.45;0.10;;;8.10;50.00;;;;;;5075721;28;20738;-50
2022/02/23 02:04:03;;;;;;;0.80;0.20;;;7.80;47.40;;;;;;5076131;28;20431;-55
2022/02/23 02:06:30;;;;;;;0.50;0.20;;;7.50;90.10;;;;;;5075737;28;20423;-54
2022/02/23 02:08:58;;;;;;;0.68;0.20;;;7.20;99.90;;;;;;5076127;28;20423;-49
2022/02/23 02:11:25;;;;;;;0.50;0.20;;;7.10;99.90;;;;;;5075426;28;20423;-53
2022/02/23 02:13:51;;;;;;;1.20;0.20;;;6.90;99.90;;;;;;5075616;28;20439;-57
2022/02/23 02:16:18;;;;;;;0.70;0.20;;;6.80;99.90;;;;;;5075855;28;20408;-57
2022/02/23 02:18:45;;;;;;;0.60;0.20;;;6.70;99.90;;;;;;5074955;28;20438;-55
2022/02/23 02:21:12;;;;;;;1.60;0.20;;;6.60;99.90;;;;;;5074829;28;20419;-55
2022/02/23 02:23:40;;;;;;;1.00;0.20;;;6.60;99.90;;;;;;5075281;28;20470;-55
2022/02/23 02:26:07;;;;;;;1.05;0.20;;;6.70;99.90;;;;;;5075253;28;20427;-57
2022/02/23 02:28:34;;;;;;;0.60;0.20;;;6.60;99.90;;;;;;5075411;28;20422;-56
2022/02/23 02:31:01;;;;;;;0.40;0.20;;;6.60;99.90;;;;;;5075644;28;20415;-55
2022/02/23 02:33:27;;;;;;;0.60;0.10;;;6.50;99.90;;;;;;5073701;28;20434;-51
2022/02/23 02:35:54;;;;;;;0.70;0.20;;;6.60;99.90;;;;;;5073319;28;20515;-56
2022/02/23 02:38:21;;;;;;;2.60;0.20;;;6.60;99.90;;;;;;5073526;28;20431;-56
2022/02/23 02:40:49;;;;;;;1.40;0.30;;;6.60;99.90;;;;;;5073710;28;20746;-53
2022/02/23 02:43:16;;;;;;;1.50;0.20;;;6.50;99.90;;;;;;5074442;28;20418;-52
2022/02/23 02:45:43;;;;;;;0.90;0.20;;;6.50;99.90;;;;;;5074094;28;20440;-53
2022/02/23 02:48:10;;;;;;;0.50;0.20;;;6.40;99.90;;;;;;5074146;28;20415;-55
2022/02/23 02:50:37;;;;;;;1.10;0.20;;;6.50;99.90;;;;;;5075171;28;20507;-54
2022/02/23 02:53:04;;;;;;;1.90;0.30;;;6.50;99.90;;;;;;5075030;28;20420;-54
2022/02/23 02:55:31;;;;;;;0.95;0.20;;;6.50;99.90;;;;;;5075385;28;20423;-54
2022/02/23 02:57:59;;;;;;;0.88;0.20;;;6.50;99.90;;;;;;5074835;28;20431;-53
2022/02/23 03:00:26;;;;;;;0.40;0.20;;;6.60;99.90;;;;;;5075290;28;20522;-57
2022/02/23 03:02:52;;;;;;;2.20;0.30;;;6.60;99.90;;;;;;5074991;28;20851;-56
2022/02/23 03:05:19;;;;;;;0.50;0.20;;;6.60;99.90;;;;;;5075107;28;20427;-53
2022/02/23 03:07:46;;;;;;;1.00;0.20;;;6.80;99.90;;;;;;5074998;28;20422;-54
2022/02/23 03:10:13;;;;;;;1.40;0.30;;;6.90;95.00;;;;;;5075064;28;20427;-55
2022/02/23 03:12:40;;;;;;;0.50;0.20;;;6.90;55.00;;;;;;5074921;28;20419;-55
2022/02/23 03:15:09;;;;;;;1.73;0.27;;;7.00;64.30;;;;;;5074920;28;20427;-55
2022/02/23 03:17:35;;;;;;;0.50;0.20;;;7.00;59.50;;;;;;5074901;28;20416;-51
2022/02/23 03:20:02;;;;;;;2.10;0.20;;;6.90;63.00;;;;;;5075054;28;20459;-56
2022/02/23 03:22:29;;;;;;;1.50;0.30;;;7.00;87.50;;;;;;5074963;28;20426;-55
2022/02/23 03:24:56;;;;;;;1.60;0.30;;;7.10;48.00;;;;;;5075220;28;20473;-55
2022/02/23 03:27:23;;;;;;;0.80;0.25;;;7.10;14.60;;;;;;5074854;28;20846;-52
2022/02/23 03:29:50;;;;;;;0.90;0.20;;;7.00;19.50;;;;;;5074870;28;20429;-55
2022/02/23 03:32:18;;;;;;;2.90;0.30;;;7.00;45.00;;;;;;5074470;28;20423;-50
2022/02/23 03:34:45;;;;;;;2.90;0.30;;;7.00;45.30;;;;;;5074884;28;20427;-54
2022/02/23 03:37:12;;;;;;;1.55;0.30;;;7.00;37.70;;;;;;5074472;28;20419;-56
2022/02/23 03:39:39;;;;;;;3.70;0.40;;;7.00;38.50;;;;;;5074984;28;20715;-55
2022/02/23 03:42:06;;;;;;;0.90;0.20;;;7.00;57.40;;;;;;5074629;28;20427;-54
2022/02/23 03:44:33;;;;;;;2.10;0.20;;;7.00;41.90;;;;;;5074455;28;20427;-56
2022/02/23 03:47:00;;;;;;;1.50;0.30;;;6.90;43.10;;;;;;5075089;28;20430;-54
2022/02/23 03:49:29;;;;;;;2.60;0.30;;;6.90;52.20;;;;;;5078220;28;20510;-54
2022/02/23 03:51:55;;;;;;;1.20;0.30;;;6.90;57.70;;;;;;5078338;28;20481;-53
2022/02/23 03:54:22;;;;;;;1.40;0.30;;;6.80;64.60;;;;;;5077976;28;20427;-53
2022/02/23 03:56:49;;;;;;;1.20;0.30;;;6.80;85.90;;;;;;5078366;28;20796;-55
2022/02/23 03:59:16;;;;;;;1.42;0.20;;;6.80;69.40;;;;;;5077948;28;20432;-55
2022/02/23 04:01:46;;;;;;;1.83;0.20;;;6.80;69.10;;;;;;5078309;28;20715;-51
2022/02/23 04:04:13;;;;;;;2.10;0.40;;;6.60;76.60;;;;;;5078196;28;20437;-55
2022/02/23 04:06:42;;;;;;;1.40;0.30;;;6.50;92.00;;;;;;5078258;28;20423;-49
2022/02/23 04:09:10;;;;;;;0.77;0.30;;;6.50;99.90;;;;;;5077845;28;20423;-55
2022/02/23 04:11:37;;;;;;;2.53;0.30;;;6.50;99.90;;;;;;5077796;28;20420;-53
2022/02/23 04:14:05;;;;;;;0.70;0.20;;;6.60;99.90;;;;;;5077791;28;20430;-54
2022/02/23 04:16:33;;;;;;;0.70;0.20;;;6.60;99.90;;;;;;5078175;28;20815;-54
2022/02/23 04:19:00;;;;;;;1.67;0.30;;;6.60;99.90;;;;;;5078052;28;20702;-55
2022/02/23 04:21:27;;;;;;;1.70;0.30;;;6.70;99.90;;;;;;5077952;28;20845;-51
2022/02/23 04:23:55;;;;;;;1.80;0.30;;;6.80;99.90;;;;;;5077872;28;20434;-55
2022/02/23 04:26:22;;;;;;;2.90;0.40;;;6.80;98.30;;;;;;5077864;28;20522;-54
2022/02/23 04:28:50;;;;;;;0.63;0.30;;;6.90;99.90;;;;;;5077679;28;20419;-55
2022/02/23 04:31:17;;;;;;;1.00;0.30;;;7.00;99.90;;;;;;5077953;28;20422;-55
2022/02/23 04:33:43;;;;;;;1.02;0.30;;;7.00;99.90;;;;;;5077402;28;20430;-52
2022/02/23 04:36:11;;;;;;;1.30;0.30;;;7.10;96.40;;;;;;5077198;28;20842;-53
2022/02/23 04:38:39;;;;;;;0.73;0.37;;;7.00;96.40;;;;;;5076316;28;20517;-49
2022/02/23 04:41:08;;;;;;;1.40;0.30;;;7.00;99.90;;;;;;5076575;28;20416;-55
2022/02/23 04:43:36;;;;;;;0.90;0.40;;;7.00;99.90;;;;;;5076820;28;20426;-55
2022/02/23 04:46:06;;;;;;;1.40;0.40;;;7.00;99.90;;;;;;5076574;28;20434;-54
2022/02/23 04:48:32;;;;;;;1.65;0.30;;;7.00;97.30;;;;;;5076382;28;20837;-53
2022/02/23 04:50:59;;;;;;;2.53;0.30;;;6.90;95.30;;;;;;5076859;28;20428;-54
2022/02/23 04:53:26;;;;;;;1.70;0.30;;;6.90;94.90;;;;;;5077115;28;20424;-52
2022/02/23 04:55:53;;;;;;;1.80;0.30;;;6.80;95.40;;;;;;5076970;28;20602;-57
2022/02/23 04:58:21;;;;;;;2.10;0.40;;;6.80;99.90;;;;;;5076276;28;20420;-48
2022/02/23 05:00:48;;;;;;;3.10;0.30;;;6.70;99.90;;;;;;5077191;28;20832;-53
2022/02/23 05:03:16;;;;;;;1.80;0.40;;;6.70;99.90;;;;;;5076717;28;20518;-54
2022/02/23 05:05:45;;;;;;;1.70;0.30;;;6.70;99.90;;;;;;5077185;28;20428;-55
2022/02/23 05:08:13;;;;;;;2.30;0.30;;;6.70;99.90;;;;;;5076224;28;20530;-54
2022/02/23 05:10:40;;;;;;;1.83;0.30;;;6.70;99.90;;;;;;5074824;28;20427;-54
2022/02/23 05:13:07;;;;;;;2.58;0.50;;;6.70;99.90;;;;;;5074634;28;20419;-53
2022/02/23 05:15:35;;;;;;;1.17;0.30;;;6.70;99.90;;;;;;5075658;28;20427;-51
2022/02/23 05:18:02;;;;;;;0.50;0.25;;;6.60;98.60;;;;;;5074228;28;20513;-52
2022/02/23 05:20:29;;;;;;;0.77;0.30;;;6.50;99.90;;;;;;5073844;28;20435;-54
2022/02/23 05:22:56;;;;;;;1.20;0.30;;;6.40;99.90;;;;;;5073853;28;20426;-53
2022/02/23 05:25:24;;;;;;;3.20;0.40;;;6.30;99.90;;;;;;5073853;28;20431;-49
2022/02/23 05:27:51;;;;;;;1.58;0.40;;;6.20;99.90;;;;;;5074042;28;20431;-51
2022/02/23 05:30:18;;;;;;;0.70;0.30;;;6.20;99.90;;;;;;5074395;28;20421;-52
2022/02/23 05:32:47;;;;;;;1.00;0.30;;;6.20;99.90;;;;;;5074715;28;20493;-52
2022/02/23 05:35:14;;;;;;;1.23;0.30;;;6.10;99.90;;;;;;5066054;28;20498;-53
2022/02/23 05:37:41;;;;;;;1.30;0.32;;;6.20;99.90;;;;;;5050946;28;20427;-52
2022/02/23 05:40:10;;;;;;;1.50;0.40;;;6.10;99.90;;;;;;5035541;28;20734;-50
2022/02/23 05:42:37;;;;;;;2.25;0.40;;;6.20;99.90;;;;;;5035993;28;20862;-53
2022/02/23 05:45:04;;;;;;;2.87;0.50;;;6.20;99.90;;;;;;5049516;28;20507;-52
2022/02/23 05:47:31;;;;;;;1.60;0.50;;;6.20;99.90;;;;;;5054042;28;20428;-53
2022/02/23 05:50:00;;;;;;;1.10;0.30;;;6.10;99.90;;;;;;5036184;28;20517;-52
2022/02/23 05:52:26;;;;;;;1.40;0.30;;;6.10;99.90;;;;;;5034964;28;20427;-48
2022/02/23 05:54:53;;;;;;;1.10;0.30;;;6.10;99.90;;;;;;5034424;28;20441;-52
2022/02/23 05:57:20;;;;;;;0.80;0.40;;;6.10;99.90;;;;;;5034628;28;20445;-56
2022/02/23 05:59:47;;;;;;;3.05;0.40;;;6.00;99.90;;;;;;5034072;28;20438;-54
2022/02/23 06:02:14;;;;;;;0.70;0.30;;;5.90;99.90;;;;;;5033995;28;20429;-51
2022/02/23 06:04:41;;;;;;;3.30;0.50;;;5.70;99.90;;;;;;5034825;28;20437;-53
2022/02/23 06:07:09;;;;;;;2.13;0.35;;;5.60;99.90;;;;;;5050907;28;20425;-49
2022/02/23 06:09:36;;;;;;;1.70;0.40;;;5.60;99.90;;;;;;5052524;28;20433;-49
2022/02/23 06:12:03;;;;;;;1.17;0.40;;;5.50;99.90;;;;;;5052306;28;20444;-52
2022/02/23 06:14:31;;;;;;;2.40;0.40;;;5.60;99.90;;;;;;5044903;28;20441;-53
2022/02/23 06:16:58;;;;;;;2.58;0.40;;;5.70;99.90;;;;;;5033295;28;20426;-49
2022/02/23 06:19:25;;;;;;;1.90;0.40;;;5.80;99.90;;;;;;5035636;28;20439;-51
2022/02/23 06:21:51;;;;;;;1.90;0.40;;;5.80;99.90;;;;;;5054175;28;20847;-52
2022/02/23 06:24:20;;;;;;;1.50;0.60;;;5.70;99.90;;;;;;5053770;28;20425;-51
2022/02/23 06:26:47;;;;;;;2.60;0.40;;;5.70;99.90;;;;;;5048783;28;20430;-51
2022/02/23 06:29:14;;;;;;;1.00;0.40;;;5.80;99.90;;;;;;5034981;28;20696;-50
2022/02/23 06:31:40;;;;;;;1.42;0.43;;;5.80;99.90;;;;;;5034166;28;20430;-52
2022/02/23 06:34:09;;;;;;;0.77;0.40;;;5.90;99.90;;;;;;5038293;28;20433;-54
2022/02/23 06:36:35;;;;;;;1.95;0.30;;;5.80;99.90;;;;;;5040560;28;20427;-50
2022/02/23 06:39:02;;;;;;;1.30;0.40;;;5.70;99.90;;;;;;5048894;28;20859;-48
2022/02/23 06:41:31;;;;;;;1.55;0.40;;;5.60;99.90;;;;;;5040179;28;20435;-54
2022/02/23 06:43:57;;;;;;;1.80;0.40;;;5.50;99.90;;;;;;5050605;28;20836;-51
2022/02/23 06:46:24;;;;;;;1.20;0.40;;;5.40;99.90;;;;;;5049517;28;20869;-54
2022/02/23 06:48:51;;;;;;;2.80;0.50;;;5.50;99.90;;;;;;5049232;28;20424;-52
2022/02/23 06:51:21;;;;;;;1.00;0.45;;;5.50;99.90;;;;;;5046709;28;20427;-53
2022/02/23 06:53:49;;;;;;;1.00;0.40;;;5.50;99.90;;;;;;5051038;28;20419;-50
2022/02/23 06:56:16;;;;;;;1.20;0.30;;;5.60;99.90;;;;;;5051566;28;20444;-51
2022/02/23 06:58:46;;;;;;;2.15;0.60;;;5.50;99.90;;;;;;5045635;28;20728;-53
2022/02/23 07:01:16;;;;;;;2.60;0.50;;;5.60;99.90;;;;;;5051870;28;20448;-58
2022/02/23 07:03:43;;;;;;;3.25;0.60;;;5.80;99.90;;;;;;5042375;28;20897;-51
2022/02/23 07:06:10;;;;;;;1.23;0.50;;;5.80;99.90;;;;;;5048066;28;20510;-51
2022/02/23 07:08:38;;;;;;;1.98;0.40;;;5.80;99.90;;;;;;5048424;28;20435;-52
2022/02/23 07:11:05;;;;;;;1.85;0.50;;;5.80;99.90;;;;;;5051690;28;20421;-49
2022/02/23 07:13:32;;;;;;;2.20;0.40;;;5.90;99.90;;;;;;5049194;28;20941;-48
2022/02/23 07:16:00;;;;;;;1.73;0.50;;;5.80;99.90;;;;;;5052081;28;20718;-53
2022/02/23 07:18:28;;;;;;;0.90;0.40;;;5.90;99.90;;;;;;5050383;28;20428;-51
2022/02/23 07:20:55;;;;;;;1.45;0.40;;;6.00;99.90;;;;;;5051698;28;20819;-52
2022/02/23 07:23:22;;;;;;;1.95;0.50;;;6.00;99.90;;;;;;5054130;28;20432;-52
2022/02/23 07:25:51;;;;;;;1.80;0.50;;;6.10;99.90;;;;;;5055584;28;20429;-49
2022/02/23 07:28:18;;;;;;;1.55;0.50;;;6.20;99.90;;;;;;5037264;28;20853;-53
2022/02/23 07:30:45;;;;;;;2.20;0.50;;;6.20;99.90;;;;;;5055462;28;20431;-52
2022/02/23 07:33:15;;;;;;;1.58;0.60;;;6.20;99.90;;;;;;5049187;28;20873;-52
2022/02/23 07:35:42;;;;;;;1.88;0.47;;;6.20;99.90;;;;;;5038145;28;20537;-50
2022/02/23 07:38:09;;;;;;;1.70;0.50;;;6.20;99.90;;;;;;5027586;28;20430;-57
2022/02/23 07:40:36;;;;;;;1.13;0.60;;;6.20;99.90;;;;;;5032898;28;20738;-51
2022/02/23 07:43:04;;;;;;;1.67;0.50;;;6.20;99.90;;;;;;5037717;28;20851;-51
2022/02/23 07:45:32;;;;;;;2.00;0.60;;;6.30;99.90;;;;;;5029231;28;20445;-53
2022/02/23 07:48:01;;;;;;;1.15;0.50;;;6.40;99.90;;;;;;5052916;28;20436;-50
2022/02/23 07:50:31;;;;;;;1.83;0.50;;;6.50;99.90;;;;;;5031806;28;20501;-53
2022/02/23 07:52:58;;;;;;;1.88;0.50;;;6.50;99.90;;;;;;5036250;28;20431;-54
2022/02/23 07:55:26;;;;;;;2.13;0.50;;;6.60;99.90;;;;;;5026092;28;20919;-49
2022/02/23 07:57:53;;;;;;;1.50;0.50;;;6.50;99.90;;;;;;5024263;28;20437;-54
2022/02/23 08:00:22;;;;;;;1.85;0.50;;;6.40;99.90;;;;;;5038166;28;20698;-52
2022/02/23 08:02:49;;;;;;;2.40;0.50;;;6.40;99.90;;;;;;5024024;28;20494;-47
2022/02/23 08:05:16;;;;;;;1.30;0.50;;;6.50;99.90;;;;;;5031961;28;20879;-50
2022/02/23 08:07:45;;;;;;;2.25;0.52;;;6.60;99.90;;;;;;5047615;28;20508;-54
2022/02/23 08:10:12;;;;;;;1.88;0.50;;;6.70;99.90;;;;;;5035649;28;20860;-50
2022/02/23 08:12:39;;;;;;;2.92;0.60;;;6.70;99.90;;;;;;5027122;28;20477;-52
2022/02/23 08:20:38;;;;;;;1.48;0.70;;;6.90;99.90;;;;;;5036103;28;20434;-51
2022/02/23 08:23:07;;;;;;;1.30;0.60;;;6.90;99.90;;;;;;5048603;28;20431;-52
2022/02/23 08:25:34;;;;;;;1.80;0.60;;;6.90;99.90;;;;;;5037304;28;20469;-51
2022/02/23 08:28:01;;;;;;;1.60;0.40;;;6.90;99.90;;;;;;5034854;28;20837;-52
2022/02/23 08:30:28;;;;;;;1.60;0.50;;;7.00;99.90;;;;;;5026395;28;20445;-51
2022/02/23 08:32:55;;;;;;;1.60;0.50;;;7.00;99.90;;;;;;5039523;28;20448;-49
2022/02/23 08:35:22;;;;;;;0.70;0.40;;;7.10;99.90;;;;;;5045236;28;20543;-53
2022/02/23 08:37:49;;;;;;;1.60;0.40;;;7.10;99.90;;;;;;5055879;28;20443;-52
2022/02/23 08:40:18;;;;;;;1.30;0.40;;;7.20;99.90;;;;;;5037592;28;20443;-51
2022/02/23 08:42:45;;;;;;;0.98;0.40;;;7.20;99.90;;;;;;5045923;28;20441;-51
2022/02/23 08:45:12;;;;;;;0.90;0.40;;;7.30;99.90;;;;;;5047946;28;20437;-48
2022/02/23 08:47:39;;;;;;;3.10;0.40;;;7.30;98.20;;;;;;5047619;28;20863;-51
2022/02/23 08:50:07;;;;;;;0.88;0.40;;;7.40;98.90;;;;;;5050031;28;20982;-52
2022/02/23 08:52:34;;;;;;;1.40;0.40;;;7.40;91.90;;;;;;5045095;28;20494;-51
2022/02/23 08:55:03;;;;;;;0.90;0.40;;;7.50;78.20;;;;;;5050524;28;20533;-47
2022/02/23 08:57:32;;;;;;;1.90;0.40;;;7.60;49.50;;;;;;5049615;28;20879;-53
2022/02/23 08:59:59;;;;;;;2.88;0.70;;;7.80;26.30;;;;;;5038014;28;20438;-53
2022/02/23 09:02:25;;;;;;;3.63;0.90;;;7.90;1.00;;;;;;5040510;28;20712;-50
2022/02/23 09:04:52;;;;;;;3.43;1.07;;;8.00;1.00;;;;;;5035274;28;21803;-51
2022/02/23 09:07:19;;;;;;;5.40;1.40;;;8.00;1.00;;;;;;5047011;28;20835;-51
2022/02/23 09:09:46;;;;;;;4.85;1.70;;;8.10;1.00;;;;;;5051091;28;20525;-51
2022/02/23 09:12:13;;;;;;;3.10;0.80;;;8.10;1.00;;;;;;5053581;28;20426;-54
2022/02/23 09:14:42;;;;;;;5.93;1.10;;;8.10;1.00;;;;;;5041394;28;20868;-50
2022/02/23 09:17:09;;;;;;;3.05;0.95;;;8.00;1.00;;;;;;5033470;28;20419;-50
2022/02/23 09:19:35;;;;;;;1.70;0.70;;;8.00;1.00;;;;;;5032167;28;20422;-49
2022/02/23 09:22:02;;;;;;;2.90;0.60;;;8.20;1.00;;;;;;5032692;28;20426;-47
2022/02/23 09:24:29;;;;;;;2.53;0.40;;;8.20;1.00;;;;;;5034596;28;20870;-47
2022/02/23 09:27:01;;;;;;;1.20;0.40;;;8.40;1.00;;;;;;5038691;28;20431;-52
2022/02/23 09:29:28;;;;;;;1.25;0.40;;;8.50;1.00;;;;;;5031946;28;20441;-53
2022/02/23 09:31:56;;;;;;;0.90;0.40;;;8.60;1.00;;;;;;5038244;28;20743;-54
2022/02/23 09:34:24;;;;;;;1.90;0.40;;;8.70;1.00;;;;;;5041671;28;20444;-53
2022/02/23 09:36:50;;;;;;;2.00;0.30;;;8.90;1.00;;;;;;5047368;28;20429;-59
2022/02/23 09:39:18;;;;;;;1.00;0.30;;;9.10;99.90;;;;;;5048512;28;20438;-50
2022/02/23 09:41:46;;;;;;;1.02;0.30;;;9.20;99.90;;;;;;5044887;28;21110;-51
2022/02/23 09:44:17;;;;;;;1.10;0.40;;;9.20;1.00;;;;;;5041697;28;20426;-53
2022/02/23 09:46:45;;;;;;;1.70;0.50;;;9.50;12.50;;;;;;5040352;28;20433;-51
2022/02/23 09:49:14;;;;;;;0.70;0.30;;;9.60;1.00;;;;;;5047101;28;20442;-54
2022/02/23 09:51:41;;;;;;;0.60;0.30;;;9.60;1.00;;;;;;5034051;28;20857;-54
2022/02/23 09:54:08;;;;;;;0.50;0.30;;;9.70;1.00;;;;;;5046099;28;20921;-54
2022/02/23 09:56:35;;;;;;;1.10;0.30;;;9.90;1.00;;;;;;5049178;28;20425;-57
2022/02/23 09:59:01;;;;;;;1.80;0.30;;;9.90;99.90;;;;;;5045556;28;20423;-54
2022/02/23 10:01:30;;;;;;;1.50;0.30;;;9.80;99.90;;;;;;5044808;28;20720;-54
2022/02/23 10:03:56;;;;;;;2.40;0.30;;;9.90;78.30;;;;;;5043836;28;20450;-53
2022/02/23 10:06:29;;;;;;;1.60;0.40;;;9.80;1.00;;;;;;5029498;28;20518;-53
2022/02/23 10:09:01;;;;;;;0.55;0.30;;;9.90;99.90;;;;;;5048954;28;20840;-51
2022/02/23 10:11:29;;;;;;;1.17;0.40;;;10.20;1.00;;;;;;5047807;28;20435;-55
2022/02/23 10:13:57;;;;;;;1.60;0.30;;;10.20;1.00;;;;;;5032096;28;20439;-51
2022/02/23 10:16:28;;;;;;;1.00;0.30;;;10.10;1.00;;;;;;5032426;28;20445;-51
2022/02/23 10:19:06;;;;;;;1.40;0.30;;;10.10;1.00;;;;;;5040696;28;20441;-50
2022/02/23 10:21:50;;;;;;;1.10;0.30;;;10.10;1.00;;;;;;5037010;28;20435;-54
2022/02/23 10:24:23;;;;;;;1.30;0.30;;;10.20;1.00;;;;;;5048073;28;20478;-54
2022/02/23 10:26:58;;;;;;;1.02;0.30;;;10.50;1.00;;;;;;5044861;28;20429;-58
2022/02/23 10:29:30;;;;;;;2.05;0.40;;;10.60;99.90;;;;;;5036064;28;20730;-59
2022/02/23 10:31:57;;;;;;;2.35;0.40;;;10.70;99.90;;;;;;5049336;28;20508;-59
2022/02/23 10:34:26;;;;;;;2.30;0.30;;;10.70;99.90;;;;;;5041687;28;20427;-60
2022/02/23 10:37:06;;;;;;;1.40;0.40;;;10.80;99.90;;;;;;5045239;28;20437;-62
2022/02/23 10:39:41;;;;;;;1.13;0.50;;;10.90;99.90;;;;;;5047234;28;20982;-60
2022/02/23 10:42:11;;;;;;;1.27;0.40;;;11.00;99.90;;;;;;5052976;28;20439;-62
2022/02/23 10:44:42;;;;;;;1.30;0.30;;;11.00;99.90;;;;;;5050890;28;20867;-61
2022/02/23 10:47:13;;;;;;;1.73;0.40;;;10.90;99.90;;;;;;5038795;28;20512;-60
2022/02/23 10:49:40;;;;;;;1.58;0.30;;;11.00;99.90;;;;;;5032591;28;20526;-60
2022/02/23 10:52:10;;;;;;;1.23;0.30;;;11.30;99.90;;;;;;5035374;28;20760;-59
2022/02/23 10:54:37;;;;;;;2.80;0.40;;;11.30;99.90;;;;;;5042963;28;20435;-59
2022/02/23 10:57:19;;;;;;;0.70;0.30;;;11.30;93.50;;;;;;5032915;28;20517;-59
2022/02/23 10:59:46;;;;;;;1.05;0.40;;;11.20;99.90;;;;;;5034525;28;20526;-60
2022/02/23 11:02:14;;;;;;;0.50;0.20;;;11.40;99.90;;;;;;5046147;28;20429;-59
2022/02/23 11:04:41;;;;;;;1.20;0.38;;;11.60;95.30;;;;;;5040320;28;20839;-59
2022/02/23 11:07:10;;;;;;;2.40;0.30;;;11.90;67.50;;;;;;5044012;28;20419;-59
2022/02/23 11:09:37;;;;;;;0.90;0.30;;;12.20;25.70;;;;;;5032922;28;20525;-59
2022/02/23 11:12:05;;;;;;;1.67;0.40;;;12.30;1.00;;;;;;5046423;28;20475;-60
2022/02/23 11:14:35;;;;;;;1.35;0.35;;;12.20;1.00;;;;;;5036336;28;20586;-60
2022/02/23 11:17:02;;;;;;;1.33;0.30;;;12.30;1.00;;;;;;5048289;28;20438;-59
2022/02/23 11:19:32;;;;;;;0.88;0.40;;;12.60;1.00;;;;;;5046584;28;20435;-59
2022/02/23 11:22:04;;;;;;;0.93;0.40;;;12.40;1.00;;;;;;5043152;28;20596;-60
2022/02/23 11:24:32;;;;;;;1.30;0.30;;;12.50;1.00;;;;;;5037100;28;20433;-58
2022/02/23 11:27:04;;;;;;;1.20;0.30;;;12.60;1.00;;;;;;5046189;28;20448;-58
2022/02/23 11:29:39;;;;;;;0.70;0.30;;;12.30;1.00;;;;;;5046973;28;20459;-59
2022/02/23 11:32:07;;;;;;;1.80;0.50;;;12.30;1.00;;;;;;5036351;28;20776;-59
2022/02/23 11:34:37;;;;;;;1.60;0.50;;;12.50;1.00;;;;;;5030690;28;20435;-59
2022/02/23 11:37:10;;;;;;;1.80;0.40;;;12.90;1.00;;;;;;5046714;28;20440;-59
2022/02/23 11:39:39;;;;;;;0.70;0.40;;;12.90;1.00;;;;;;5051349;28;20429;-59
2022/02/23 11:42:10;;;;;;;0.80;0.30;;;13.00;1.00;;;;;;5043845;28;20547;-59
2022/02/23 11:44:40;;;;;;;0.70;0.40;;;13.10;1.00;;;;;;5034883;28;20455;-59
2022/02/23 11:47:12;;;;;;;1.40;0.30;;;13.50;1.00;;;;;;5032287;28;20553;-58
2022/02/23 11:49:49;;;;;;;0.80;0.32;;;13.30;1.00;;;;;;5035854;28;20700;-58
2022/02/23 11:52:18;;;;;;;1.90;0.40;;;13.30;1.00;;;;;;5046821;28;20768;-58
2022/02/23 11:54:55;;;;;;;2.20;0.50;;;12.60;1.00;;;;;;5035020;28;20442;-59
2022/02/23 11:57:48;;;;;;;1.25;0.40;;;11.90;1.00;;;;;;5030398;28;20427;-59
2022/02/23 12:00:18;;;;;;;1.30;0.40;;;11.60;1.00;;;;;;5038718;28;20437;-59
2022/02/23 12:02:57;;;;;;;1.08;0.40;;;11.50;1.00;;;;;;5039247;28;20437;-59
2022/02/23 12:05:38;;;;;;;1.15;0.30;;;12.00;1.00;;;;;;5044157;28;20506;-59
2022/02/23 12:08:06;;;;;;;1.30;0.40;;;12.50;1.00;;;;;;5030569;28;20467;-59
2022/02/23 12:10:36;;;;;;;2.10;0.30;;;12.90;1.00;;;;;;5046192;28;20740;-58
2022/02/23 12:13:04;;;;;;;1.00;0.30;;;13.00;1.00;;;;;;5050207;28;20429;-59
2022/02/23 12:15:35;;;;;;;0.70;0.30;;;13.40;1.00;;;;;;5047280;28;20437;-59
2022/02/23 12:18:07;;;;;;;1.90;0.50;;;13.50;1.00;;;;;;5051888;28;20466;-60
2022/02/23 12:20:56;;;;;;;1.75;0.43;;;13.60;1.00;;;;;;5052363;28;20433;-58
2022/02/23 12:23:40;;;;;;;2.20;0.50;;;13.50;1.00;;;;;;5043984;28;20427;-58
2022/02/23 12:26:27;;;;;;;1.30;0.50;;;13.60;1.00;;;;;;5041960;28;20425;-58
2022/02/23 12:28:58;;;;;;;0.90;0.53;;;13.80;1.00;;;;;;5041012;28;20691;-58
2022/02/23 12:31:30;;;;;;;0.60;0.40;;;13.90;1.00;;;;;;5039182;28;20429;-58
2022/02/23 12:33:59;;;;;;;1.60;0.40;;;13.90;1.00;;;;;;5041123;28;20439;-58
2022/02/23 12:36:30;;;;;;;1.70;0.30;;;13.50;1.00;;;;;;5043189;28;20432;-58
2022/02/23 12:38:58;;;;;;;0.80;0.30;;;13.40;1.00;;;;;;5050931;28;20438;-59
2022/02/23 12:41:29;;;;;;;1.40;0.30;;;12.90;1.00;;;;;;5050646;28;20465;-58
2022/02/23 12:43:58;;;;;;;1.65;0.40;;;13.00;1.00;;;;;;5043881;28;20437;-58
2022/02/23 12:46:28;;;;;;;0.80;0.40;;;13.00;1.00;;;;;;5035390;28;20427;-58
2022/02/23 12:48:56;;;;;;;0.70;0.30;;;12.90;1.00;;;;;;5051694;28;20754;-59
2022/02/23 12:51:24;;;;;;;0.90;0.30;;;13.10;1.00;;;;;;5041231;28;20430;-59
2022/02/23 12:53:57;;;;;;;0.98;0.30;;;13.20;1.00;;;;;;5041095;28;20498;-59
2022/02/23 12:56:27;;;;;;;1.30;0.28;;;13.10;1.00;;;;;;5041966;28;20430;-59
2022/02/23 12:58:56;;;;;;;0.60;0.30;;;13.10;1.00;;;;;;5030581;28;20435;-59
2022/02/23 13:01:25;;;;;;;1.10;0.30;;;13.30;1.00;;;;;;5036846;28;20848;-59
2022/02/23 13:03:54;;;;;;;0.60;0.20;;;13.50;1.00;;;;;;5034235;28;20932;-58
2022/02/23 13:06:25;;;;;;;1.30;0.40;;;13.80;1.00;;;;;;5034084;28;20873;-60
2022/02/23 13:08:52;;;;;;;0.60;0.20;;;13.80;1.00;;;;;;5047109;28;20908;-60